KDALKGTU

Guest
Details From KDAL - Dallas Love Fld
To KGTU - Georgetown Muni
Flight Number -
Tags generated
Created
Modified
Stats Distance 137 nm / 254 km
Max Altitude 12,400 ft / 3,780 m
Waypoints 3
Social Downloads 0
Likes 0
Share VATSIM

Download

Looking for another format? Having issues loading an existing format? Contact us
Advertisement - Login to hide

Notes

Basic altitude profile: - Ascent Rate: 2500ft/min - Ascent Speed: 100kts - Cruise Altitude: 1000ft - Cruise Speed: 420kts - Descent Rate: 1500ft/min - Descent Speed: 250kts Options: - Use NATs: yes - Use PACOTS: yes - Use low airways: yes - Use high airways: yes

Route

KDAL ACT KGTU

ID Type Via Altitude Latitude Longitude Leg Dist Tot Dist Heading (true) Name
O KDAL APT - 0 ft / 0 m 32.84753˚ -96.85186˚ - 0 nm - Dallas Love Fld
ACT VOR - 12,400 ft / 3,780 m 31.66233˚ -97.26903˚ 74 nm 74 nm 197° / 196° WACO VORTAC
O KGTU APT - 0 ft / 0 m 30.67878˚ -97.67949˚ 62 nm 136 nm 200° / 200° Georgetown Muni

Altitude Profile

Advertisement - Login to hide

KDAL

Details ICAO KDAL (DAL)
Name Dallas Love Fld
Region United States
Timezone America/Chicago (UTC-6.0)
Stats Elevation 487 ft / 148 m (AMSL)
Location 32.847529° -96.851864°
Runways 3
Magnetic Variation 3.323° E

METAR

KDAL 111953Z 26010KT 10SM FEW003 SCT250 25/M08 A3011 RMK AO2 SLP194 FU FEW003 NW T02501078

Decode

TAF

TAF AMD KDAL 112104Z 1121/1218 25011KT P6SM SCT300 FM120200 31011KT P6SM SCT300 FM120500 35013KT P6SM BKN300

Decode

Departure Runways

ID Width Length Bearing (true) Bearing (mag) Surface Threshold Offset Overrun Length
13L 151 ft / 46 m 7,757 ft / 2,364 m 135.77° 132.45° Concrete 0 ft / 0 m 200 ft / 61 m
13R 151 ft / 46 m 8,805 ft / 2,684 m 135.76° 132.44° Concrete 489 ft / 149 m 200 ft / 61 m
18 151 ft / 46 m 6,164 ft / 1,879 m 185.50° 182.18° Asphalt 0 ft / 0 m 200 ft / 61 m
31L 151 ft / 46 m 8,805 ft / 2,684 m 315.77° 312.45° Concrete 0 ft / 0 m 200 ft / 61 m
31R 151 ft / 46 m 7,757 ft / 2,364 m 315.78° 312.46° Concrete 0 ft / 0 m 200 ft / 61 m
36 151 ft / 46 m 6,164 ft / 1,879 m 5.50° 2.18° Asphalt 0 ft / 0 m 200 ft / 61 m

KGTU

Details ICAO KGTU (GTU)
Name Georgetown Muni
Region United States
Timezone America/Chicago (UTC-6.0)
Stats Elevation 790 ft / 241 m (AMSL)
Location 30.678783° -97.679490°
Runways 2
Magnetic Variation 3.817° E

METAR

KGTU 111956Z 21006KT 10SM CLR 22/00 A3022 RMK AO2 SLP231 T02170000

Decode

TAF

Not found

Destination Runways

ID Width Length Bearing (true) Bearing (mag) Surface Threshold Offset Overrun Length
11 75 ft / 23 m 4,098 ft / 1,249 m 120.69° 116.87° Asphalt 0 ft / 0 m 0 ft / 0 m
18 100 ft / 30 m 5,016 ft / 1,529 m 183.55° 179.73° Asphalt 0 ft / 0 m 0 ft / 0 m
29 75 ft / 23 m 4,098 ft / 1,249 m 300.69° 296.87° Asphalt 0 ft / 0 m 0 ft / 0 m
36 100 ft / 30 m 5,016 ft / 1,529 m 3.55° 359.73° Asphalt 0 ft / 0 m 0 ft / 0 m